Time;durP1;ratioP1;P1;durP2;ratioP2;P2;SDS_P1;SDS_P2;PMS_P1;PMS_P2;Temp;Humidity;BMP_temperature;BMP_pressure;BME280_temperature;BME280_humidity;BME280_pressure;Samples;Min_cycle;Max_cycle;Signal;HPM_P1;HPM_P2
2023/05/20 00:01:16;;;;;;;;;;;;;;;;;;5048175;28;19921;-84
2023/05/20 00:04:03;;;;;;;;;;;;;;;;;;5045984;28;20013;-83
2023/05/20 00:06:49;;;;;;;;;;;;;;;;;;5049599;28;20387;-84
2023/05/20 00:09:36;;;;;;;;;;;;;;;;;;5031655;28;19917;-84
2023/05/20 00:12:22;;;;;;;;;;;;;;;;;;5037706;28;19916;-83
2023/05/20 00:15:10;;;;;;;;;;;;;;;;;;5040987;28;19936;-84
2023/05/20 00:17:57;;;;;;;;;;;;;;;;;;5046826;28;19919;-86
2023/05/20 00:20:43;;;;;;;;;;;;;;;;;;5041712;28;19935;-87
2023/05/20 00:23:30;;;;;;;;;;;;;;;;;;5037917;28;19951;-86
2023/05/20 00:26:16;;;;;;;;;;;;;;;;;;5041012;28;19928;-87
2023/05/20 00:29:03;;;;;;;;;;;;;;;;;;5052347;28;19920;-85
2023/05/20 00:31:49;;;;;;;;;;;;;;;;;;5049386;28;19954;-86
2023/05/20 00:34:36;;;;;;;;;;;;;;;;;;5039730;28;19923;-86
2023/05/20 00:37:22;;;;;;;;;;;;;;;;;;5047736;28;19927;-85
2023/05/20 00:40:09;;;;;;;;;;;;;;;;;;5030060;28;20407;-86
2023/05/20 00:42:55;;;;;;;;;;;;;;;;;;5043266;28;19925;-86
2023/05/20 00:45:42;;;;;;;;;;;;;;;;;;5040528;28;20300;-86
2023/05/20 00:48:28;;;;;;;;;;;;;;;;;;5033276;28;19917;-86
2023/05/20 00:51:15;;;;;;;;;;;;;;;;;;5061817;28;19927;-85
2023/05/20 00:54:01;;;;;;;;;;;;;;;;;;5038830;28;19917;-86
2023/05/20 00:56:48;;;;;;;;;;;;;;;;;;5048892;28;19927;-85
2023/05/20 00:59:34;;;;;;;;;;;;;;;;;;5061006;28;19924;-84
2023/05/20 01:02:21;;;;;;;;;;;;;;;;;;5053383;28;19916;-84
2023/05/20 01:05:07;;;;;;;;;;;;;;;;;;5049579;28;19942;-86
2023/05/20 01:07:54;;;;;;;;;;;;;;;;;;5051295;28;19916;-86
2023/05/20 01:10:40;;;;;;;;;;;;;;;;;;5037373;28;19923;-84
2023/05/20 01:13:27;;;;;;;;;;;;;;;;;;5035949;28;19920;-84
2023/05/20 01:16:13;;;;;;;;;;;;;;;;;;5040770;28;20368;-84
2023/05/20 01:19:01;;;;;;;;;;;;;;;;;;5040411;28;19928;-84
2023/05/20 01:21:47;;;;;;;;;;;;;;;;;;5039729;28;19921;-85
2023/05/20 01:24:35;;;;;;;;;;;;;;;;;;5054441;28;20297;-88
2023/05/20 01:27:21;;;;;;;;;;;;;;;;;;5041784;28;19917;-86
2023/05/20 01:30:08;;;;;;;;;;;;;;;;;;5042377;28;19927;-87
2023/05/20 01:32:54;;;;;;;;;;;;;;;;;;5038776;28;19913;-84
2023/05/20 01:35:41;;;;;;;;;;;;;;;;;;5059646;28;19923;-85
2023/05/20 01:38:27;;;;;;;;;;;;;;;;;;5044096;28;19921;-84
2023/05/20 01:41:14;;;;;;;;;;;;;;;;;;5059342;28;19928;-83
2023/05/20 01:44:00;;;;;;;;;;;;;;;;;;5057720;28;19912;-83
2023/05/20 01:46:47;;;;;;;;;;;;;;;;;;5059783;28;19923;-83
2023/05/20 01:49:33;;;;;;;;;;;;;;;;;;5051262;28;19924;-84
2023/05/20 01:52:20;;;;;;;;;;;;;;;;;;5054364;28;20324;-84
2023/05/20 01:55:06;;;;;;;;;;;;;;;;;;5040581;28;19928;-85
2023/05/20 01:57:53;;;;;;;;;;;;;;;;;;5068829;28;19913;-85
2023/05/20 02:00:39;;;;;;;;;;;;;;;;;;5061678;28;19935;-86
2023/05/20 02:03:26;;;;;;;;;;;;;;;;;;5053240;28;20378;-87
2023/05/20 02:06:13;;;;;;;;;;;;;;;;;;5068931;28;19916;-84
2023/05/20 02:08:59;;;;;;;;;;;;;;;;;;5038323;28;19924;-87
2023/05/20 02:11:46;;;;;;;;;;;;;;;;;;5060243;28;19917;-86
2023/05/20 02:14:32;;;;;;;;;;;;;;;;;;5040197;28;19924;-86
2023/05/20 02:17:19;;;;;;;;;;;;;;;;;;5050146;28;19947;-85
2023/05/20 02:20:06;;;;;;;;;;;;;;;;;;5057907;28;20344;-85
2023/05/20 02:22:52;;;;;;;;;;;;;;;;;;5058028;28;19927;-85
2023/05/20 02:25:39;;;;;;;;;;;;;;;;;;5045892;28;19924;-84
2023/05/20 02:28:25;;;;;;;;;;;;;;;;;;5040257;28;19923;-85
2023/05/20 02:31:12;;;;;;;;;;;;;;;;;;5054790;28;19921;-85
2023/05/20 02:33:58;;;;;;;;;;;;;;;;;;5052619;28;19913;-86
2023/05/20 02:36:45;;;;;;;;;;;;;;;;;;5033584;28;19924;-87
2023/05/20 02:39:31;;;;;;;;;;;;;;;;;;5054455;28;19920;-84
2023/05/20 02:42:18;;;;;;;;;;;;;;;;;;5056263;28;19917;-86
2023/05/20 02:45:04;;;;;;;;;;;;;;;;;;5064544;28;19917;-86
2023/05/20 02:47:51;;;;;;;;;;;;;;;;;;5053876;28;19916;-86
2023/05/20 02:50:38;;;;;;;;;;;;;;;;;;5042775;28;20398;-86
2023/05/20 02:53:25;;;;;;;;;;;;;;;;;;5060579;28;19926;-86
2023/05/20 02:56:12;;;;;;;;;;;;;;;;;;5042795;28;19917;-86
2023/05/20 02:58:59;;;;;;;;;;;;;;;;;;5041500;28;19916;-85
2023/05/20 03:01:45;;;;;;;;;;;;;;;;;;5058260;28;19917;-84
2023/05/20 03:04:32;;;;;;;;;;;;;;;;;;5042644;28;20292;-83
2023/05/20 03:07:20;;;;;;;;;;;;;;;;;;5060276;28;19919;-83
2023/05/20 03:10:06;;;;;;;;;;;;;;;;;;5037414;28;19931;-85
2023/05/20 03:12:53;;;;;;;;;;;;;;;;;;5052500;28;19916;-85
2023/05/20 03:15:40;;;;;;;;;;;;;;;;;;5055320;28;19928;-84
2023/05/20 03:18:26;;;;;;;;;;;;;;;;;;5045514;28;20280;-84
2023/05/20 03:21:13;;;;;;;;;;;;;;;;;;5027840;28;19928;-84
2023/05/20 03:23:59;;;;;;;;;;;;;;;;;;5040606;28;20709;-83
2023/05/20 03:26:46;;;;;;;;;;;;;;;;;;5041110;28;20300;-83
2023/05/20 03:29:32;;;;;;;;;;;;;;;;;;5035859;28;19921;-83
2023/05/20 03:32:19;;;;;;;;;;;;;;;;;;5038979;28;19970;-83
2023/05/20 03:35:05;;;;;;;;;;;;;;;;;;5040827;28;19927;-84
2023/05/20 03:37:52;;;;;;;;;;;;;;;;;;5032196;28;19924;-83
2023/05/20 03:40:38;;;;;;;;;;;;;;;;;;5055651;28;19935;-84
2023/05/20 03:43:25;;;;;;;;;;;;;;;;;;5043126;28;20371;-87
2023/05/20 03:46:12;;;;;;;;;;;;;;;;;;5021370;28;19925;-86
2023/05/20 03:49:00;;;;;;;;;;;;;;;;;;5030215;28;19936;-89
2023/05/20 03:51:47;;;;;;;;;;;;;;;;;;5039775;28;19927;-85
2023/05/20 03:54:35;;;;;;;;;;;;;;;;;;5040305;28;19924;-85
2023/05/20 03:57:21;;;;;;;;;;;;;;;;;;5033576;28;19921;-85
2023/05/20 04:00:13;;;;;;;;;;;;;;;;;;5046721;28;19932;-85
2023/05/20 04:03:00;;;;;;;;;;;;;;;;;;5047433;28;19917;-85
2023/05/20 04:05:46;;;;;;;;;;;;;;;;;;5035725;28;19928;-84
2023/05/20 04:08:35;;;;;;;;;;;;;;;;;;5052686;28;20316;-83
2023/05/20 04:11:21;;;;;;;;;;;;;;;;;;5034538;28;19921;-83
2023/05/20 04:14:09;;;;;;;;;;;;;;;;;;5050980;28;19922;-83
2023/05/20 04:16:56;;;;;;;;;;;;;;;;;;5042619;28;19925;-83
2023/05/20 04:19:43;;;;;;;;;;;;;;;;;;5043098;28;19927;-83
2023/05/20 04:22:30;;;;;;;;;;;;;;;;;;5040628;28;19927;-84
2023/05/20 04:25:16;;;;;;;;;;;;;;;;;;5036846;28;19921;-84
2023/05/20 04:28:03;;;;;;;;;;;;;;;;;;5037102;28;20340;-85
2023/05/20 04:30:49;;;;;;;;;;;;;;;;;;5038888;28;19920;-85
2023/05/20 04:33:37;;;;;;;;;;;;;;;;;;5044390;28;19924;-87
2023/05/20 04:36:27;;;;;;;;;;;;;;;;;;5042983;28;19928;-82
2023/05/20 04:39:14;;;;;;;;;;;;;;;;;;5040835;28;19921;-83
2023/05/20 04:42:01;;;;;;;;;;;;;;;;;;5037533;28;20000;-83
2023/05/20 04:44:48;;;;;;;;;;;;;;;;;;5041154;28;19916;-84
2023/05/20 04:47:37;;;;;;;;;;;;;;;;;;5046434;28;20380;-84
2023/05/20 04:50:23;;;;;;;;;;;;;;;;;;5045178;28;20588;-84
2023/05/20 04:53:10;;;;;;;;;;;;;;;;;;5041482;28;19913;-84
2023/05/20 04:55:56;;;;;;;;;;;;;;;;;;5052483;28;19925;-83
2023/05/20 04:58:43;;;;;;;;;;;;;;;;;;5032503;28;20550;-83
2023/05/20 05:01:29;;;;;;;;;;;;;;;;;;5047930;28;19920;-86
2023/05/20 05:04:16;;;;;;;;;;;;;;;;;;5039078;28;19916;-86
2023/05/20 05:07:04;;;;;;;;;;;;;;;;;;5041534;28;19928;-86
2023/05/20 05:09:50;;;;;;;;;;;;;;;;;;5036603;28;19920;-86
2023/05/20 05:12:37;;;;;;;;;;;;;;;;;;5043067;28;20292;-86
2023/05/20 05:15:23;;;;;;;;;;;;;;;;;;5040165;28;19925;-84
2023/05/20 05:18:10;;;;;;;;;;;;;;;;;;5039448;28;19921;-86
2023/05/20 05:20:56;;;;;;;;;;;;;;;;;;5040065;28;19940;-85
2023/05/20 05:23:42;;;;;;;;;;;;;;;;;;5035469;28;19932;-85
2023/05/20 05:26:29;;;;;;;;;;;;;;;;;;5038188;28;19924;-85
2023/05/20 05:29:16;;;;;;;;;;;;;;;;;;5033600;28;19929;-84
2023/05/20 05:32:02;;;;;;;;;;;;;;;;;;5043666;28;20297;-85
2023/05/20 05:34:49;;;;;;;;;;;;;;;;;;5034308;28;19922;-84
2023/05/20 05:37:35;;;;;;;;;;;;;;;;;;5037696;28;19932;-85
2023/05/20 05:40:22;;;;;;;;;;;;;;;;;;5036772;28;19931;-84
2023/05/20 05:43:08;;;;;;;;;;;;;;;;;;5037905;28;19913;-84
2023/05/20 05:45:55;;;;;;;;;;;;;;;;;;5045833;28;19923;-84
2023/05/20 05:48:41;;;;;;;;;;;;;;;;;;5043090;28;20581;-84
2023/05/20 05:51:29;;;;;;;;;;;;;;;;;;5042193;28;19921;-83
2023/05/20 05:54:16;;;;;;;;;;;;;;;;;;5034721;28;19917;-83
2023/05/20 05:57:02;;;;;;;;;;;;;;;;;;5038899;28;20403;-85
2023/05/20 05:59:49;;;;;;;;;;;;;;;;;;5033034;28;19927;-86
2023/05/20 06:02:35;;;;;;;;;;;;;;;;;;5040014;28;20276;-85
2023/05/20 06:05:22;;;;;;;;;;;;;;;;;;5044469;28;19913;-85
2023/05/20 06:08:08;;;;;;;;;;;;;;;;;;5059659;28;19917;-85
2023/05/20 06:10:54;;;;;;;;;;;;;;;;;;5060586;28;19920;-87
2023/05/20 06:13:41;;;;;;;;;;;;;;;;;;5039415;28;19963;-87
2023/05/20 06:16:27;;;;;;;;;;;;;;;;;;5038868;28;19924;-87
2023/05/20 06:19:14;;;;;;;;;;;;;;;;;;5067141;28;19921;-87
2023/05/20 06:22:00;;;;;;;;;;;;;;;;;;5045470;28;19924;-88
2023/05/20 06:24:47;;;;;;;;;;;;;;;;;;5041354;28;19923;-87
2023/05/20 06:27:33;;;;;;;;;;;;;;;;;;5046502;28;19929;-87
2023/05/20 06:30:20;;;;;;;;;;;;;;;;;;5036307;28;19924;-83
2023/05/20 06:33:06;;;;;;;;;;;;;;;;;;5040240;28;19920;-84
2023/05/20 06:35:53;;;;;;;;;;;;;;;;;;5045626;28;19947;-83
2023/05/20 06:38:39;;;;;;;;;;;;;;;;;;5038711;28;19924;-84
2023/05/20 06:41:26;;;;;;;;;;;;;;;;;;5040999;28;19925;-85
2023/05/20 06:44:12;;;;;;;;;;;;;;;;;;5038946;28;19932;-82
2023/05/20 06:46:59;;;;;;;;;;;;;;;;;;5037888;28;19923;-83
2023/05/20 06:49:45;;;;;;;;;;;;;;;;;;5039909;28;19917;-85
2023/05/20 06:52:32;;;;;;;;;;;;;;;;;;5044914;28;19916;-85
2023/05/20 06:55:18;;;;;;;;;;;;;;;;;;5038822;28;19917;-84
2023/05/20 06:58:05;;;;;;;;;;;;;;;;;;5040185;28;19916;-83
2023/05/20 07:00:51;;;;;;;;;;;;;;;;;;5042765;28;19931;-83
2023/05/20 07:03:38;;;;;;;;;;;;;;;;;;5039400;28;19924;-83
2023/05/20 07:06:24;;;;;;;;;;;;;;;;;;5047883;28;20862;-85
2023/05/20 07:09:11;;;;;;;;;;;;;;;;;;5046815;28;19923;-85
2023/05/20 07:11:57;;;;;;;;;;;;;;;;;;5034330;28;19943;-85
2023/05/20 07:14:44;;;;;;;;;;;;;;;;;;5056046;28;19932;-82
2023/05/20 07:17:30;;;;;;;;;;;;;;;;;;5042229;28;20304;-81
2023/05/20 07:20:17;;;;;;;;;;;;;;;;;;5054169;28;19928;-81
2023/05/20 07:23:03;;;;;;;;;;;;;;;;;;5070989;28;19921;-84
2023/05/20 07:25:50;;;;;;;;;;;;;;;;;;5047360;28;19919;-84
2023/05/20 07:28:37;;;;;;;;;;;;;;;;;;5069103;28;19920;-85
2023/05/20 07:31:23;;;;;;;;;;;;;;;;;;5041900;28;20663;-85
2023/05/20 07:34:09;;;;;;;;;;;;;;;;;;5048272;28;19920;-84
2023/05/20 07:36:56;;;;;;;;;;;;;;;;;;5039403;28;19940;-84
2023/05/20 07:39:43;;;;;;;;;;;;;;;;;;5041198;28;19936;-85
2023/05/20 07:42:29;;;;;;;;;;;;;;;;;;5050411;28;19920;-84
2023/05/20 07:45:16;;;;;;;;;;;;;;;;;;5043761;28;20268;-82
2023/05/20 07:48:02;;;;;;;;;;;;;;;;;;5041119;28;19917;-84
2023/05/20 07:50:49;;;;;;;;;;;;;;;;;;5033747;28;19917;-83
2023/05/20 07:53:35;;;;;;;;;;;;;;;;;;5038546;28;19921;-86
2023/05/20 07:56:22;;;;;;;;;;;;;;;;;;5029356;28;19921;-85
2023/05/20 07:59:08;;;;;;;;;;;;;;;;;;5034256;28;19928;-83
2023/05/20 08:01:55;;;;;;;;;;;;;;;;;;5052952;28;19921;-86
2023/05/20 08:04:42;;;;;;;;;;;;;;;;;;5059322;28;19917;-82
2023/05/20 08:07:28;;;;;;;;;;;;;;;;;;5055528;28;19921;-83
2023/05/20 08:10:14;;;;;;;;;;;;;;;;;;5038558;28;19912;-82
2023/05/20 08:13:01;;;;;;;;;;;;;;;;;;5046346;28;19927;-81
2023/05/20 08:15:48;;;;;;;;;;;;;;;;;;5046017;28;19925;-83
2023/05/20 08:18:35;;;;;;;;;;;;;;;;;;5043939;28;19917;-83
2023/05/20 08:21:22;;;;;;;;;;;;;;;;;;5056637;28;19924;-81
2023/05/20 08:24:08;;;;;;;;;;;;;;;;;;5051921;28;19920;-81
2023/05/20 08:26:55;;;;;;;;;;;;;;;;;;5053073;28;19918;-81
2023/05/20 08:29:41;;;;;;;;;;;;;;;;;;5046419;28;19917;-83
2023/05/20 08:32:28;;;;;;;;;;;;;;;;;;5054120;28;19986;-84
2023/05/20 08:35:14;;;;;;;;;;;;;;;;;;5034562;28;19921;-84
2023/05/20 08:38:01;;;;;;;;;;;;;;;;;;5040992;28;19928;-86
2023/05/20 08:40:48;;;;;;;;;;;;;;;;;;5026955;28;19925;-83
2023/05/20 08:43:34;;;;;;;;;;;;;;;;;;5036739;28;19917;-84
2023/05/20 08:46:21;;;;;;;;;;;;;;;;;;5041598;28;19924;-83
2023/05/20 08:49:07;;;;;;;;;;;;;;;;;;5049854;28;19937;-84
2023/05/20 08:51:54;;;;;;;;;;;;;;;;;;5043253;28;19921;-84
2023/05/20 08:54:40;;;;;;;;;;;;;;;;;;5041291;28;20327;-82
2023/05/20 08:57:27;;;;;;;;;;;;;;;;;;5049168;28;19925;-81
2023/05/20 09:00:15;;;;;;;;;;;;;;;;;;5029932;28;19929;-80
2023/05/20 09:03:03;;;;;;;;;;;;;;;;;;5035032;28;20398;-80
2023/05/20 09:05:49;;;;;;;;;;;;;;;;;;5031503;28;19916;-80
2023/05/20 09:08:36;;;;;;;;;;;;;;;;;;5036820;28;19948;-81
2023/05/20 09:11:22;;;;;;;;;;;;;;;;;;5037459;28;19921;-81
2023/05/20 09:14:09;;;;;;;;;;;;;;;;;;5037380;28;19921;-81
2023/05/20 09:16:55;;;;;;;;;;;;;;;;;;5042622;28;19932;-81
2023/05/20 09:19:42;;;;;;;;;;;;;;;;;;5046977;28;19931;-82
2023/05/20 09:22:29;;;;;;;;;;;;;;;;;;5043183;28;20247;-82
2023/05/20 09:25:16;;;;;;;;;;;;;;;;;;5038170;28;19928;-80
2023/05/20 09:28:02;;;;;;;;;;;;;;;;;;5041751;28;19920;-81
2023/05/20 09:30:50;;;;;;;;;;;;;;;;;;5034315;28;19920;-82
2023/05/20 09:33:36;;;;;;;;;;;;;;;;;;5040213;28;19921;-82
2023/05/20 09:36:23;;;;;;;;;;;;;;;;;;5051729;28;20388;-82
2023/05/20 09:39:09;;;;;;;;;;;;;;;;;;5044336;28;19925;-82
2023/05/20 09:41:56;;;;;;;;;;;;;;;;;;5040976;28;20467;-83
2023/05/20 09:44:43;;;;;;;;;;;;;;;;;;5037466;28;20285;-82
2023/05/20 09:47:30;;;;;;;;;;;;;;;;;;5043398;28;20253;-83
2023/05/20 09:50:19;;;;;;;;;;;;;;;;;;5047611;28;19991;-80
2023/05/20 09:53:06;;;;;;;;;;;;;;;;;;5045365;28;20262;-89
2023/05/20 09:55:52;;;;;;;;;;;;;;;;;;5054643;28;19923;-84
2023/05/20 09:58:39;;;;;;;;;;;;;;;;;;5042379;28;19926;-85
2023/05/20 10:01:25;;;;;;;;;;;;;;;;;;5041715;28;20387;-86
2023/05/20 10:04:12;;;;;;;;;;;;;;;;;;5039624;28;19920;-83
2023/05/20 10:06:58;;;;;;;;;;;;;;;;;;5052694;28;19920;-85
2023/05/20 10:09:45;;;;;;;;;;;;;;;;;;5039808;28;19962;-85
2023/05/20 10:12:31;;;;;;;;;;;;;;;;;;5073815;28;20653;-84
2023/05/20 10:15:18;;;;;;;;;;;;;;;;;;5056691;28;19933;-84
2023/05/20 10:18:04;;;;;;;;;;;;;;;;;;5060243;28;19928;-84
2023/05/20 10:20:51;;;;;;;;;;;;;;;;;;5048678;28;19924;-83
2023/05/20 10:23:38;;;;;;;;;;;;;;;;;;5040472;28;19921;-84
2023/05/20 10:26:25;;;;;;;;;;;;;;;;;;5041866;28;20368;-85
2023/05/20 10:29:11;;;;;;;;;;;;;;;;;;5043377;28;19921;-85
2023/05/20 10:31:58;;;;;;;;;;;;;;;;;;5046153;28;19924;-83
2023/05/20 10:34:45;;;;;;;;;;;;;;;;;;5058434;28;19920;-83
2023/05/20 10:37:32;;;;;;;;;;;;;;;;;;5054861;28;20348;-83
2023/05/20 10:40:18;;;;;;;;;;;;;;;;;;5060917;28;20364;-83
2023/05/20 10:43:05;;;;;;;;;;;;;;;;;;5061813;28;20336;-83
2023/05/20 10:45:52;;;;;;;;;;;;;;;;;;5038016;28;20444;-85
2023/05/20 10:48:38;;;;;;;;;;;;;;;;;;5057231;28;19917;-88
2023/05/20 10:51:27;;;;;;;;;;;;;;;;;;5041760;28;19947;-87
2023/05/20 10:54:14;;;;;;;;;;;;;;;;;;5039168;28;19927;-85
2023/05/20 10:57:00;;;;;;;;;;;;;;;;;;5046179;28;21089;-85
2023/05/20 10:59:47;;;;;;;;;;;;;;;;;;5054013;28;19920;-85
2023/05/20 11:02:33;;;;;;;;;;;;;;;;;;5049021;28;20589;-82
2023/05/20 11:05:20;;;;;;;;;;;;;;;;;;5051113;28;19925;-90
2023/05/20 11:08:07;;;;;;;;;;;;;;;;;;5043855;28;19925;-91
2023/05/20 11:10:53;;;;;;;;;;;;;;;;;;5040737;28;19923;-91
2023/05/20 11:13:40;;;;;;;;;;;;;;;;;;5050084;28;20701;-90
2023/05/20 11:16:26;;;;;;;;;;;;;;;;;;5059592;28;19977;-91
2023/05/20 11:19:13;;;;;;;;;;;;;;;;;;5052968;28;19967;-91
2023/05/20 11:21:59;;;;;;;;;;;;;;;;;;5037750;28;19921;-91
2023/05/20 11:24:46;;;;;;;;;;;;;;;;;;5044799;28;19931;-90
2023/05/20 11:27:33;;;;;;;;;;;;;;;;;;5058643;28;19923;-91
2023/05/20 11:30:19;;;;;;;;;;;;;;;;;;5054249;28;19920;-89
2023/05/20 11:33:06;;;;;;;;;;;;;;;;;;5061030;28;20383;-90
2023/05/20 11:35:52;;;;;;;;;;;;;;;;;;5060206;28;20376;-89
2023/05/20 11:38:39;;;;;;;;;;;;;;;;;;5039813;28;19921;-89
2023/05/20 11:41:25;;;;;;;;;;;;;;;;;;5042924;28;19924;-88
2023/05/20 11:44:12;;;;;;;;;;;;;;;;;;5039588;28;19928;-88
2023/05/20 11:46:58;;;;;;;;;;;;;;;;;;5047134;28;19921;-88
2023/05/20 11:49:45;;;;;;;;;;;;;;;;;;5050923;28;19936;-88
2023/05/20 11:52:31;;;;;;;;;;;;;;;;;;5048609;28;19925;-86
2023/05/20 11:55:18;;;;;;;;;;;;;;;;;;5037543;28;19951;-87
2023/05/20 11:58:04;;;;;;;;;;;;;;;;;;5041116;28;19924;-87
2023/05/20 12:00:50;;;;;;;;;;;;;;;;;;5034299;28;19929;-87
2023/05/20 12:03:37;;;;;;;;;;;;;;;;;;5037245;28;19924;-88
2023/05/20 12:06:23;;;;;;;;;;;;;;;;;;5038792;28;19924;-88
2023/05/20 12:09:10;;;;;;;;;;;;;;;;;;5040867;28;19921;-88
2023/05/20 12:11:58;;;;;;;;;;;;;;;;;;5037971;28;19927;-86
2023/05/20 12:14:44;;;;;;;;;;;;;;;;;;5053570;28;19928;-88
2023/05/20 12:17:31;;;;;;;;;;;;;;;;;;5037262;28;19929;-86
2023/05/20 12:20:17;;;;;;;;;;;;;;;;;;5039730;28;20360;-89
2023/05/20 12:23:04;;;;;;;;;;;;;;;;;;5041073;28;19927;-87
2023/05/20 12:25:50;;;;;;;;;;;;;;;;;;5052257;28;19920;-89
2023/05/20 12:28:37;;;;;;;;;;;;;;;;;;5042295;28;19917;-90
2023/05/20 12:31:23;;;;;;;;;;;;;;;;;;5039149;28;19917;-88
2023/05/20 12:34:10;;;;;;;;;;;;;;;;;;5040094;28;19917;-89
2023/05/20 12:36:56;;;;;;;;;;;;;;;;;;5037324;28;19942;-87
2023/05/20 12:39:43;;;;;;;;;;;;;;;;;;5040768;28;19927;-90
2023/05/20 12:42:29;;;;;;;;;;;;;;;;;;5038727;28;19925;-89
2023/05/20 12:45:16;;;;;;;;;;;;;;;;;;5043105;28;19917;-88
2023/05/20 12:48:02;;;;;;;;;;;;;;;;;;5033864;28;20341;-88
2023/05/20 12:50:49;;;;;;;;;;;;;;;;;;5041001;28;19920;-88
2023/05/20 12:53:35;;;;;;;;;;;;;;;;;;5034063;28;19925;-88
2023/05/20 12:56:23;;;;;;;;;;;;;;;;;;5037637;28;19932;-84
2023/05/20 12:59:10;;;;;;;;;;;;;;;;;;5040430;28;20026;-82
2023/05/20 13:01:56;;;;;;;;;;;;;;;;;;5025807;28;19935;-83
2023/05/20 13:04:43;;;;;;;;;;;;;;;;;;5052274;28;19923;-82
2023/05/20 13:07:30;;;;;;;;;;;;;;;;;;5058466;28;19928;-84
2023/05/20 13:10:17;;;;;;;;;;;;;;;;;;5041296;28;19921;-81
2023/05/20 13:13:03;;;;;;;;;;;;;;;;;;5048807;28;19921;-82
2023/05/20 13:15:50;;;;;;;;;;;;;;;;;;5033514;28;19929;-83
2023/05/20 13:18:36;;;;;;;;;;;;;;;;;;5046463;28;19943;-86
2023/05/20 13:21:23;;;;;;;;;;;;;;;;;;5037043;28;20301;-86
2023/05/20 13:24:09;;;;;;;;;;;;;;;;;;5041479;28;19931;-90
2023/05/20 13:26:56;;;;;;;;;;;;;;;;;;5056138;28;20296;-84
2023/05/20 13:29:42;;;;;;;;;;;;;;;;;;5041117;28;20655;-86
2023/05/20 13:32:29;;;;;;;;;;;;;;;;;;5042097;28;19928;-88
2023/05/20 13:35:15;;;;;;;;;;;;;;;;;;5050712;28;19921;-80
2023/05/20 13:38:02;;;;;;;;;;;;;;;;;;5053362;28;19916;-87
2023/05/20 13:40:48;;;;;;;;;;;;;;;;;;5049658;28;19928;-87
2023/05/20 13:43:35;;;;;;;;;;;;;;;;;;5053342;28;20359;-87
2023/05/20 13:46:21;;;;;;;;;;;;;;;;;;5042298;28;20497;-87
2023/05/20 13:49:08;;;;;;;;;;;;;;;;;;5054498;28;20326;-86
2023/05/20 13:51:54;;;;;;;;;;;;;;;;;;5045070;28;19927;-87
2023/05/20 13:54:43;;;;;;;;;;;;;;;;;;5042091;28;19923;-88
2023/05/20 13:57:30;;;;;;;;;;;;;;;;;;5039803;28;19921;-87
2023/05/20 14:00:16;;;;;;;;;;;;;;;;;;5049846;28;19927;-87
2023/05/20 14:03:03;;;;;;;;;;;;;;;;;;5051751;28;19925;-87
2023/05/20 14:05:50;;;;;;;;;;;;;;;;;;5048469;28;20470;-87
2023/05/20 14:08:36;;;;;;;;;;;;;;;;;;5046923;28;19917;-87
2023/05/20 14:11:23;;;;;;;;;;;;;;;;;;5063258;28;20005;-87
2023/05/20 14:14:09;;;;;;;;;;;;;;;;;;5061719;28;19927;-84
2023/05/20 14:16:56;;;;;;;;;;;;;;;;;;5054444;28;20396;-85
2023/05/20 14:19:42;;;;;;;;;;;;;;;;;;5036365;28;19927;-84
2023/05/20 14:22:29;;;;;;;;;;;;;;;;;;5060379;28;19932;-86
2023/05/20 14:25:16;;;;;;;;;;;;;;;;;;5062525;28;19932;-83
2023/05/20 14:28:02;;;;;;;;;;;;;;;;;;5040263;28;19939;-86
2023/05/20 14:30:49;;;;;;;;;;;;;;;;;;5053114;28;20498;-87
2023/05/20 14:33:35;;;;;;;;;;;;;;;;;;5044151;28;19921;-86
2023/05/20 14:36:22;;;;;;;;;;;;;;;;;;5051982;28;19920;-86
2023/05/20 14:39:08;;;;;;;;;;;;;;;;;;5045582;28;19951;-85
2023/05/20 14:41:55;;;;;;;;;;;;;;;;;;5046499;28;20388;-86
2023/05/20 14:44:41;;;;;;;;;;;;;;;;;;5042638;28;19921;-86
2023/05/20 14:47:28;;;;;;;;;;;;;;;;;;5042173;28;19946;-86
2023/05/20 14:50:14;;;;;;;;;;;;;;;;;;5054158;28;19917;-91
2023/05/20 14:53:01;;;;;;;;;;;;;;;;;;5048118;28;19920;-91
2023/05/20 14:55:47;;;;;;;;;;;;;;;;;;5040158;28;19971;-92
2023/05/20 14:58:34;;;;;;;;;;;;;;;;;;5038615;28;20296;-88
2023/05/20 15:01:20;;;;;;;;;;;;;;;;;;5061126;28;19974;-91
2023/05/20 15:04:07;;;;;;;;;;;;;;;;;;5042685;28;19927;-92
2023/05/20 15:06:53;;;;;;;;;;;;;;;;;;5040557;28;19917;-91
2023/05/20 15:09:40;;;;;;;;;;;;;;;;;;5062560;28;19923;-89
2023/05/20 15:12:26;;;;;;;;;;;;;;;;;;5042374;28;19916;-89
2023/05/20 15:15:12;;;;;;;;;;;;;;;;;;5041967;28;19947;-87
2023/05/20 15:17:59;;;;;;;;;;;;;;;;;;5052119;28;19921;-89
2023/05/20 15:20:46;;;;;;;;;;;;;;;;;;5049341;28;19955;-87
2023/05/20 15:23:32;;;;;;;;;;;;;;;;;;5042503;28;20247;-89
2023/05/20 15:26:20;;;;;;;;;;;;;;;;;;5039073;28;19921;-88
2023/05/20 15:29:07;;;;;;;;;;;;;;;;;;5039107;28;19917;-84
2023/05/20 15:31:53;;;;;;;;;;;;;;;;;;5039237;28;19921;-84
2023/05/20 15:34:40;;;;;;;;;;;;;;;;;;5048965;28;19921;-89
2023/05/20 15:37:26;;;;;;;;;;;;;;;;;;5058551;28;20431;-85
2023/05/20 15:40:13;;;;;;;;;;;;;;;;;;5044596;28;20367;-87
2023/05/20 15:42:59;;;;;;;;;;;;;;;;;;5054516;28;19929;-91
2023/05/20 15:45:47;;;;;;;;;;;;;;;;;;5049730;28;19931;-88
2023/05/20 15:48:33;;;;;;;;;;;;;;;;;;5059997;28;19923;-87
2023/05/20 15:51:20;;;;;;;;;;;;;;;;;;5053057;28;19961;-89
2023/05/20 15:54:06;;;;;;;;;;;;;;;;;;5040440;28;19932;-88
2023/05/20 15:56:53;;;;;;;;;;;;;;;;;;5050113;28;20308;-88
2023/05/20 15:59:40;;;;;;;;;;;;;;;;;;5040075;28;19916;-91
2023/05/20 16:02:26;;;;;;;;;;;;;;;;;;5048632;28;19928;-90
2023/05/20 16:05:13;;;;;;;;;;;;;;;;;;5042963;28;19916;-86
2023/05/20 16:07:59;;;;;;;;;;;;;;;;;;5047227;28;19924;-85
2023/05/20 16:10:46;;;;;;;;;;;;;;;;;;5045979;28;19921;-84
2023/05/20 16:13:32;;;;;;;;;;;;;;;;;;5049369;28;19923;-84
2023/05/20 16:16:19;;;;;;;;;;;;;;;;;;5053207;28;19939;-88
2023/05/20 16:19:05;;;;;;;;;;;;;;;;;;5041321;28;19912;-88
2023/05/20 16:21:52;;;;;;;;;;;;;;;;;;5039095;28;19929;-88
2023/05/20 16:24:38;;;;;;;;;;;;;;;;;;5022902;28;19924;-88
2023/05/20 16:27:25;;;;;;;;;;;;;;;;;;5043067;28;19939;-88
2023/05/20 16:30:11;;;;;;;;;;;;;;;;;;5058660;28;19932;-88
2023/05/20 16:32:58;;;;;;;;;;;;;;;;;;5061315;28;19916;-89
2023/05/20 16:35:44;;;;;;;;;;;;;;;;;;5044714;28;19920;-87
2023/05/20 16:38:33;;;;;;;;;;;;;;;;;;5059541;28;19946;-87
2023/05/20 16:41:19;;;;;;;;;;;;;;;;;;5060425;28;20285;-87
2023/05/20 16:44:06;;;;;;;;;;;;;;;;;;5049180;28;19916;-87
2023/05/20 16:46:52;;;;;;;;;;;;;;;;;;5040305;28;19920;-88
2023/05/20 16:49:39;;;;;;;;;;;;;;;;;;5039141;28;19928;-88
2023/05/20 16:52:25;;;;;;;;;;;;;;;;;;5044274;28;19920;-83
2023/05/20 16:55:12;;;;;;;;;;;;;;;;;;5042414;28;19920;-83
2023/05/20 16:57:59;;;;;;;;;;;;;;;;;;5039336;28;19924;-83
2023/05/20 17:00:45;;;;;;;;;;;;;;;;;;5042378;28;21413;-83
2023/05/20 17:03:32;;;;;;;;;;;;;;;;;;5047752;28;19925;-84
2023/05/20 17:06:18;;;;;;;;;;;;;;;;;;5045523;28;20058;-87
2023/05/20 17:09:05;;;;;;;;;;;;;;;;;;5050299;28;19917;-85
2023/05/20 17:11:53;;;;;;;;;;;;;;;;;;5039030;28;19921;-83
2023/05/20 17:14:39;;;;;;;;;;;;;;;;;;5034410;28;19921;-84
2023/05/20 17:17:26;;;;;;;;;;;;;;;;;;5043014;28;20392;-83
2023/05/20 17:20:12;;;;;;;;;;;;;;;;;;5042431;28;19917;-83
2023/05/20 17:22:59;;;;;;;;;;;;;;;;;;5039046;28;20402;-84
2023/05/20 17:25:46;;;;;;;;;;;;;;;;;;5047171;28;19939;-83
2023/05/20 17:28:32;;;;;;;;;;;;;;;;;;5056499;28;19925;-83
2023/05/20 17:31:19;;;;;;;;;;;;;;;;;;5038123;28;19924;-84
2023/05/20 17:34:05;;;;;;;;;;;;;;;;;;5045119;28;19927;-84
2023/05/20 17:36:52;;;;;;;;;;;;;;;;;;5049767;28;19920;-86
2023/05/20 17:39:38;;;;;;;;;;;;;;;;;;5035702;28;19954;-86
2023/05/20 17:42:25;;;;;;;;;;;;;;;;;;5040561;28;19936;-85
2023/05/20 17:45:11;;;;;;;;;;;;;;;;;;5052653;28;19927;-87
2023/05/20 17:47:58;;;;;;;;;;;;;;;;;;5040032;28;20568;-88
2023/05/20 17:50:44;;;;;;;;;;;;;;;;;;5058368;28;19927;-86
2023/05/20 17:53:31;;;;;;;;;;;;;;;;;;5039638;28;19932;-85
2023/05/20 17:56:17;;;;;;;;;;;;;;;;;;5038005;28;20299;-87
2023/05/20 17:59:04;;;;;;;;;;;;;;;;;;5045332;28;19927;-86
2023/05/20 18:01:51;;;;;;;;;;;;;;;;;;5052423;28;19932;-85
2023/05/20 18:04:37;;;;;;;;;;;;;;;;;;5059673;28;19924;-88
2023/05/20 18:07:25;;;;;;;;;;;;;;;;;;5037187;28;20577;-88
2023/05/20 18:10:13;;;;;;;;;;;;;;;;;;5058747;28;19953;-85
2023/05/20 18:13:00;;;;;;;;;;;;;;;;;;5058444;28;19921;-85
2023/05/20 18:15:47;;;;;;;;;;;;;;;;;;5044904;28;19956;-87
2023/05/20 18:18:33;;;;;;;;;;;;;;;;;;5038441;28;19931;-85
2023/05/20 18:21:20;;;;;;;;;;;;;;;;;;5041297;28;19929;-86
2023/05/20 18:24:06;;;;;;;;;;;;;;;;;;5041568;28;19917;-83
2023/05/20 18:26:53;;;;;;;;;;;;;;;;;;5048892;28;19924;-88
2023/05/20 18:29:39;;;;;;;;;;;;;;;;;;5047892;28;19924;-88
2023/05/20 18:32:27;;;;;;;;;;;;;;;;;;5049485;28;19920;-86
2023/05/20 18:35:13;;;;;;;;;;;;;;;;;;5062046;28;20444;-85
2023/05/20 18:38:00;;;;;;;;;;;;;;;;;;5058563;28;19931;-90
2023/05/20 18:40:47;;;;;;;;;;;;;;;;;;5038924;28;19953;-86
2023/05/20 18:43:33;;;;;;;;;;;;;;;;;;5041577;28;19921;-83
2023/05/20 18:46:20;;;;;;;;;;;;;;;;;;5040215;28;20255;-82
2023/05/20 18:49:06;;;;;;;;;;;;;;;;;;5056073;28;19926;-84
2023/05/20 18:51:53;;;;;;;;;;;;;;;;;;5056723;28;19924;-84
2023/05/20 18:54:39;;;;;;;;;;;;;;;;;;5039958;28;20261;-83
2023/05/20 18:57:26;;;;;;;;;;;;;;;;;;5038724;28;19928;-84